Sunday, May 01, 2016
04:13 UTC
  |  Log In   |  Register Free
Airport Search:

Enterprise Municipal Airport
(KEDN)

Enterprise Municipal Airport Diagram
No Airport Diagram Available

FAA data valid effective Mar 31 2016 - May 26 2016 (unless otherwise noted).

 
 
 
 
 
 
 
 
 
 
 
 
 
 
Current Aviation Weather for KEDN

Weather Summary


The most recent METAR observation for EDN was updated at: 12:53 UTC
METAR for KEDN is not available. Closest METAR is for KSXS
KEDN  (most recent observation was updatred at 10:35 UTC)
010355Z AUTO 20004KT 10SM CLR 22/20 A2999 RMK AO2

KSXS  (4.6 nm SW)   (most recent observation was updated at 10:35 UTC)
010356Z AUTO 20007KT 10SM BKN170 24/20 A3000 RMK AO2 SLP157 T02390197

KLOR  (8.3 nm SW)   (most recent observation was updated at 10:35 UTC)
010353Z AUTO 19003KT 10SM CLR 23/19 A2998 RMK AO2 SLP147 T02330189 $

TAF for KEDN is not available.
KOZR  (9.7 nm NW)   (most recent observation was updatred at 10:00 UTC)
010000Z 0100/0206 17006KT 9999 FEW010 SCT030 BKN180 QNH2988INS TEMPO 0106/0110 4800 BR BKN010 BKN030 BECMG 0114/0115 17009KT 9999 SCT030 BKN040 BKN180 QNH2990INS BECMG 0117/0118 17012KT 8000 -SHRA BKN030 BKN180 QNH2996INS TEMPO 0118/0123 18012G18KT 4800 -TSRA BKN025CB BECMG 0123/0124 17009KT 9999 NSW SCT030 BKN180 QNH3000INS TX32/0121Z TN19/0112Z


KDHN  (23.1 nm SW)   (most recent observation was updatred at 30:23 UTC)
302339Z 0100/0124 21007KT P6SM SCT050 BKN200 FM011000 17004KT 4SM BR SCT005 FM011400 19008KT P6SM SCT030 FM011900 18010KT P6SM SCT040


KTOI  (34.1 nm SE)   (most recent observation was updatred at 10:35 UTC)
AMD 010350Z 0104/0124 21005KT P6SM VCSH BKN050 FM010600 VRB03KT P6SM BKN090 FM010900 VRB03KT P6SM BKN015 BKN090 FM011500 19008KT P6SM VCSH BKN040 BKN090
GlobalAir.com is loading additional information.
 Current Weather at EDN
72.0 F° (22.0 C°)

South winds at 3.5 mph
Pressure:
29.98 in
Humidity:
78%
Wind:
South at 3.5 mph
Dew Point:
64.4 F° (18.0 C°)
Visibility:
10.00 mi
EDN NOAA Radar




Find All Airport Services Find A Hotel Find A Rental Car Find A Golf Course Find A Restaurant $100 Hamburger



Airport Weather Forecast for KEDN

Translated METAR for KEDN (0355 UTC)
METAR:
KEDN 010355Z AUTO 20004KT 10SM CLR 22/20 A2999 RMK AO2
Conditions at:
KEDN (Enterprise Muni, AL) observed 0355 UTC 01 May 2016
Temperature:
22°C (71.6°F)
Dewpoint:
20°C (68°F) [RH = 88.4]
Pressure:
29.99 inches Hg (1015.6 mb)
Winds:
from the SSW (200 degrees) at 4.6 mph (4 knots: 2.1 m/s)
Visibility:
10 mile(s)
Ceiling:
at least 12,000 feet AGL
Clouds:
Clear below 12,000 feet AGL
Remarks:
site is un-manned
site is automated and HAS a precipitation sensor

Translated TAF for KOZR (Cairns Aaf (Fort Rucker), AL) (0000 UTC)
TAF text:
KOZR 010000Z 0100/0206 17006KT 9999 FEW010 SCT030 BKN180 QNH2988INS
Forecast period:
Sunday May 01 2016 00:00 UTC - Monday May 02 2016 06:00 UTC
Forecast type:
FROM: standard forecast or significant change
Winds:
from the S (170 degrees) at 6.9 mph (6 knots: 3.1 m/s)
Visibility:
Ceiling:
18,000 feet AGL
Clouds:
Few Clouds at 1,000 feet AGL
Scattered Clouds at 3,000 feet AGL
Broken Cloud Cover at 18,000 feet AGL
Weather:
no significant weather observed at this time
TAF text:
0106/0110 4800 BR BKN010 BKN030 BECMG 0114/0115 17009KT 9999 SCT030 BKN040 BKN180 QNH2990INS BECMG 0117/0118 17012KT 8000 -SHRA BKN030 BKN180 QNH2996INS
Forecast period:
Monday May 02 2016 06:00 UTC - Monday May 02 2016 10:00 UTC
Forecast type:
FROM: standard forecast or significant change
Winds:
from the S (170 degrees) at 13.8 mph (12 knots: 6.2 m/s)
Visibility:
Ceiling:
1,000 feet AGL
4,000 feet AGL
3,000 feet AGL
Clouds:
Broken Cloud Cover at 1,000 feet AGL
Broken Cloud Cover at 3,000 feet AGL
Scattered Clouds at 3,000 feet AGL
Broken Cloud Cover at 4,000 feet AGL
Broken Cloud Cover at 18,000 feet AGL
Broken Cloud Cover at 3,000 feet AGL
Broken Cloud Cover at 18,000 feet AGL
Weather:
Moderate Mist
FBO's on the Field
FBO Company Facility Photos Services Transportation Aviation Fuel Prices: Prices include tax
Catering Weather Repair Courtesy Rental Type 100LL JetA JetA+ MOGAS 8087
 
Enterprise Municipal Airport

This FBO has not yet been rated
FS:Epic
Last Updated: Apr-26
Login to update fuel prices
SS:
Contact Enterprise Municipal AirportMore FBO Information
 
Add another FBO Facility Photos Catering Weather Repair Courtesy Rental Type 100LL JetA JetA+ MOGAS 8087
Services Transportation Aviation Fuel Prices: Prices include tax


model-print
model-print
model-print
model-print